Time;durP1;ratioP1;P1;durP2;ratioP2;P2;SDS_P1;SDS_P2;PMS_P1;PMS_P2;Temp;Humidity;BMP_temperature;BMP_pressure;BME280_temperature;BME280_humidity;BME280_pressure;Samples;Min_cycle;Max_cycle;Signal;HPM_P1;HPM_P2
2020/12/31 00:00:29;;;;;;;1.95;1.23;;;1.20;99.90;;;;;;5046710;28;20100;-72
2020/12/31 00:02:55;;;;;;;3.13;1.17;;;1.20;99.90;;;;;;5041999;28;20093;-71
2020/12/31 00:05:21;;;;;;;2.35;1.23;;;1.20;99.90;;;;;;5042941;28;20124;-71
2020/12/31 00:07:46;;;;;;;3.17;1.73;;;1.20;99.90;;;;;;5039311;28;20096;-71
2020/12/31 00:10:12;;;;;;;3.13;1.67;;;1.20;99.90;;;;;;5041292;28;20128;-71
2020/12/31 00:12:37;;;;;;;2.05;1.50;;;1.20;99.90;;;;;;5044138;28;20576;-71
2020/12/31 00:15:04;;;;;;;1.80;1.30;;;1.20;99.90;;;;;;5041638;28;20573;-71
2020/12/31 00:17:30;;;;;;;2.85;1.60;;;1.30;99.90;;;;;;5042677;28;20084;-71
2020/12/31 00:19:55;;;;;;;2.55;1.50;;;1.20;99.90;;;;;;5041838;28;20085;-71
2020/12/31 00:22:21;;;;;;;3.22;1.45;;;1.30;99.90;;;;;;5045434;28;20100;-71
2020/12/31 00:24:46;;;;;;;2.22;1.40;;;1.20;99.90;;;;;;5044638;28;20426;-71
2020/12/31 00:27:12;;;;;;;2.92;1.60;;;1.20;99.90;;;;;;5040170;28;20128;-70
2020/12/31 00:29:37;;;;;;;2.53;1.50;;;1.30;99.90;;;;;;5039707;28;20177;-71
2020/12/31 00:32:03;;;;;;;3.83;1.80;;;1.30;99.90;;;;;;5040088;28;20069;-71
2020/12/31 00:34:29;;;;;;;1.67;1.55;;;1.40;99.90;;;;;;5040860;28;20609;-70
2020/12/31 00:36:54;;;;;;;3.05;1.35;;;1.50;99.90;;;;;;5049203;28;20084;-70
2020/12/31 00:39:20;;;;;;;2.55;1.58;;;1.60;99.90;;;;;;5043742;28;20557;-71
2020/12/31 00:41:46;;;;;;;1.73;1.30;;;1.70;99.90;;;;;;5042413;28;20097;-71
2020/12/31 00:44:12;;;;;;;1.80;1.10;;;1.70;99.90;;;;;;5041540;28;20715;-71
2020/12/31 00:46:37;;;;;;;2.28;1.35;;;1.70;99.90;;;;;;5041937;28;20445;-71
2020/12/31 00:49:03;;;;;;;3.83;1.77;;;1.80;99.90;;;;;;5040828;28;20070;-71
2020/12/31 00:51:29;;;;;;;1.10;1.00;;;1.70;99.90;;;;;;5042866;28;20244;-70
2020/12/31 00:53:55;;;;;;;2.03;1.20;;;1.60;99.90;;;;;;5043653;28;20580;-70
2020/12/31 00:56:20;;;;;;;1.95;1.15;;;1.60;99.90;;;;;;5037934;28;20522;-71
2020/12/31 00:58:46;;;;;;;3.97;1.50;;;1.50;99.90;;;;;;5034214;28;20651;-71
2020/12/31 01:01:14;;;;;;;2.38;1.70;;;1.50;99.90;;;;;;5029022;28;20078;-70
2020/12/31 01:03:40;;;;;;;2.08;1.40;;;1.40;99.90;;;;;;5031794;28;20102;-70
2020/12/31 01:06:05;;;;;;;2.78;1.70;;;1.30;99.90;;;;;;5031978;28;20089;-70
2020/12/31 01:08:31;;;;;;;2.70;1.83;;;1.40;99.90;;;;;;5030388;28;20066;-70
2020/12/31 01:10:56;;;;;;;1.45;1.35;;;1.50;99.90;;;;;;5030956;28;20275;-70
2020/12/31 01:13:22;;;;;;;2.33;1.42;;;1.40;99.90;;;;;;5032361;28;20519;-70
2020/12/31 01:15:47;;;;;;;3.33;1.35;;;1.50;99.90;;;;;;5059922;28;20538;-71
2020/12/31 01:18:13;;;;;;;2.50;1.35;;;1.40;99.90;;;;;;5029949;28;20078;-71
2020/12/31 01:20:39;;;;;;;3.00;1.50;;;1.40;99.90;;;;;;5029396;28;20090;-71
2020/12/31 01:23:08;;;;;;;2.47;1.30;;;1.30;99.90;;;;;;5034385;28;20109;-70
2020/12/31 01:25:34;;;;;;;2.20;1.27;;;1.30;99.90;;;;;;5028206;28;20459;-70
2020/12/31 01:28:01;;;;;;;1.52;1.42;;;1.10;99.90;;;;;;5030233;28;20077;-71
2020/12/31 01:30:27;;;;;;;4.22;1.58;;;1.10;99.90;;;;;;5028719;28;20140;-71
2020/12/31 01:32:53;;;;;;;2.03;1.30;;;1.00;99.90;;;;;;5029962;28;20086;-70
2020/12/31 01:35:19;;;;;;;2.35;1.23;;;1.10;99.90;;;;;;5028390;28;20102;-71
2020/12/31 01:37:45;;;;;;;1.70;1.38;;;0.90;99.90;;;;;;5030140;28;20489;-71
2020/12/31 01:40:10;;;;;;;1.65;1.15;;;0.90;99.90;;;;;;5028116;28;20531;-70
2020/12/31 01:42:39;;;;;;;3.13;1.70;;;0.70;99.90;;;;;;5028874;28;20539;-71
2020/12/31 01:45:05;;;;;;;1.45;1.00;;;0.80;99.90;;;;;;5028033;28;20176;-71
2020/12/31 01:47:31;;;;;;;2.03;1.42;;;0.90;99.90;;;;;;5036999;28;20160;-70
2020/12/31 01:49:56;;;;;;;2.00;1.50;;;0.90;99.90;;;;;;5027412;28;20105;-70
2020/12/31 01:52:22;;;;;;;2.75;1.20;;;0.90;99.90;;;;;;5027576;28;20093;-70
2020/12/31 01:54:48;;;;;;;1.52;1.10;;;0.60;99.90;;;;;;5029429;28;20125;-70
2020/12/31 01:57:14;;;;;;;2.10;1.33;;;0.70;99.90;;;;;;5030016;28;20132;-70
2020/12/31 01:59:40;;;;;;;2.42;1.25;;;0.70;99.90;;;;;;5027934;28;20074;-71
2020/12/31 02:02:07;;;;;;;2.22;1.30;;;0.70;99.90;;;;;;5027833;28;21425;-71
2020/12/31 02:04:34;;;;;;;3.25;1.50;;;0.70;99.90;;;;;;5024416;28;20726;-71
2020/12/31 02:07:00;;;;;;;2.00;1.33;;;0.70;99.90;;;;;;5028996;28;20089;-71
2020/12/31 02:09:26;;;;;;;2.00;1.27;;;0.80;99.90;;;;;;5034875;28;20454;-71
2020/12/31 02:11:51;;;;;;;2.28;1.45;;;0.80;99.90;;;;;;5026106;28;20652;-70
2020/12/31 02:14:17;;;;;;;2.05;1.00;;;0.50;99.90;;;;;;5022826;28;20192;-71
2020/12/31 02:16:42;;;;;;;1.55;1.02;;;0.20;99.90;;;;;;5030135;28;20084;-71
2020/12/31 02:19:16;;;;;;;1.92;1.10;;;0.30;99.90;;;;;;5028227;28;20106;-71
2020/12/31 02:21:45;;;;;;;3.33;1.52;;;0.30;99.90;;;;;;5027887;28;20077;-71
2020/12/31 02:24:11;;;;;;;1.73;1.40;;;0.50;99.90;;;;;;5028189;28;20093;-71
2020/12/31 02:26:38;;;;;;;2.60;1.88;;;0.40;99.90;;;;;;5028604;28;20148;-70
2020/12/31 02:29:05;;;;;;;2.65;1.70;;;0.40;99.90;;;;;;5027213;28;20074;-71
2020/12/31 02:31:31;;;;;;;2.00;1.70;;;0.40;99.90;;;;;;5027444;28;20084;-71
2020/12/31 02:33:58;;;;;;;2.35;1.70;;;0.40;99.90;;;;;;5026532;28;20261;-70
2020/12/31 02:36:26;;;;;;;2.00;1.40;;;0.40;99.90;;;;;;5029483;28;20081;-71
2020/12/31 02:38:52;;;;;;;2.70;1.38;;;0.30;99.90;;;;;;5031000;28;20082;-70
2020/12/31 02:41:19;;;;;;;2.40;1.73;;;0.30;99.90;;;;;;5025516;28;20132;-71
2020/12/31 02:43:44;;;;;;;4.18;1.67;;;0.10;99.90;;;;;;5026907;28;20453;-71
2020/12/31 02:46:12;;;;;;;1.92;1.33;;;0.00;99.90;;;;;;5039697;28;20082;-71
2020/12/31 02:48:39;;;;;;;2.40;1.85;;;0.00;99.90;;;;;;5031222;28;20086;-70
2020/12/31 02:51:05;;;;;;;3.15;1.60;;;0.10;99.90;;;;;;5026872;28;20480;-71
2020/12/31 02:53:31;;;;;;;2.17;1.38;;;0.10;99.90;;;;;;5030457;28;20078;-70
2020/12/31 02:55:56;;;;;;;1.92;1.73;;;0.00;99.90;;;;;;5027850;28;20092;-71
2020/12/31 02:58:22;;;;;;;2.20;1.60;;;-0.40;99.90;;;;;;5033727;28;20123;-71
2020/12/31 03:00:48;;;;;;;2.70;1.83;;;-0.50;99.90;;;;;;5035791;28;20572;-71
2020/12/31 03:03:13;;;;;;;1.90;1.48;;;-0.60;99.90;;;;;;5022648;28;20200;-70
2020/12/31 03:05:39;;;;;;;1.70;1.60;;;-0.50;99.90;;;;;;5033988;28;20116;-71
2020/12/31 03:08:04;;;;;;;2.10;1.50;;;-0.70;99.90;;;;;;5033364;28;20093;-71
2020/12/31 03:10:30;;;;;;;1.88;1.50;;;-0.80;99.90;;;;;;5026911;28;20074;-70
2020/12/31 03:12:56;;;;;;;2.40;2.00;;;-0.80;99.90;;;;;;5034920;28;20069;-71
2020/12/31 03:15:22;;;;;;;2.97;1.50;;;-0.80;99.90;;;;;;5025876;28;20185;-71
2020/12/31 03:17:48;;;;;;;2.38;1.73;;;-0.90;99.90;;;;;;5026883;28;20224;-71
2020/12/31 03:20:13;;;;;;;2.13;1.67;;;-0.70;99.90;;;;;;5030747;28;20088;-70
2020/12/31 03:22:39;;;;;;;2.65;1.73;;;-0.70;99.90;;;;;;5027899;28;20074;-71
2020/12/31 03:25:05;;;;;;;3.47;1.90;;;-0.70;99.90;;;;;;5027246;28;20531;-71
2020/12/31 03:27:31;;;;;;;2.78;2.15;;;-0.70;99.90;;;;;;5024075;28;20082;-70
2020/12/31 03:29:57;;;;;;;3.25;2.05;;;-0.60;99.90;;;;;;5031811;28;20101;-70
2020/12/31 03:32:23;;;;;;;2.80;1.20;;;-0.40;99.90;;;;;;5027529;28;20092;-71
2020/12/31 03:34:48;;;;;;;2.83;2.10;;;-0.30;99.90;;;;;;5027174;28;20521;-70
2020/12/31 03:37:14;;;;;;;5.15;2.95;;;-0.20;99.90;;;;;;5031804;28;20085;-70
2020/12/31 03:39:40;;;;;;;3.20;2.13;;;-0.10;99.90;;;;;;5026722;28;20084;-71
2020/12/31 03:42:06;;;;;;;2.40;1.60;;;-0.10;99.90;;;;;;5027210;28;20089;-71
2020/12/31 03:44:32;;;;;;;2.25;1.77;;;-0.20;99.90;;;;;;5028653;28;21021;-71
2020/12/31 03:46:57;;;;;;;2.13;1.52;;;-0.10;99.90;;;;;;5027512;28;20212;-71
2020/12/31 03:49:23;;;;;;;2.35;1.58;;;-0.10;99.90;;;;;;5026987;28;20084;-71
2020/12/31 03:51:48;;;;;;;2.13;1.50;;;-0.10;99.90;;;;;;5029125;28;20084;-70
2020/12/31 03:54:14;;;;;;;4.03;1.65;;;-0.20;99.90;;;;;;5033225;28;20090;-70
2020/12/31 03:56:40;;;;;;;1.85;1.70;;;-0.50;99.90;;;;;;5031722;28;20084;-71
2020/12/31 03:59:05;;;;;;;4.10;2.20;;;-0.40;99.90;;;;;;5045963;28;20074;-71
2020/12/31 04:01:32;;;;;;;3.22;1.90;;;-0.50;99.90;;;;;;5029439;28;20157;-71
2020/12/31 04:03:57;;;;;;;2.33;1.75;;;-0.40;99.90;;;;;;5037107;28;20528;-70
2020/12/31 04:06:23;;;;;;;2.88;1.75;;;-0.30;99.90;;;;;;5024928;28;20100;-71
2020/12/31 04:08:49;;;;;;;3.75;1.80;;;-0.30;99.90;;;;;;5025818;28;20153;-70
2020/12/31 04:11:14;;;;;;;2.83;2.10;;;-0.60;99.90;;;;;;5031447;28;20381;-71
2020/12/31 04:13:40;;;;;;;3.03;2.30;;;-0.50;99.90;;;;;;5028856;28;20097;-71
2020/12/31 04:16:06;;;;;;;1.98;1.58;;;-0.60;99.90;;;;;;5026135;28;20134;-70
2020/12/31 04:18:31;;;;;;;2.47;1.50;;;-0.80;99.90;;;;;;5028902;28;20159;-70
2020/12/31 04:20:57;;;;;;;2.05;1.58;;;-0.70;99.90;;;;;;5029312;28;20603;-71
2020/12/31 04:23:23;;;;;;;1.85;1.50;;;-0.90;99.90;;;;;;5028055;28;20685;-71
2020/12/31 04:25:49;;;;;;;4.60;2.50;;;-0.60;99.90;;;;;;5025795;28;20108;-71
2020/12/31 04:28:15;;;;;;;4.32;1.92;;;-0.40;99.90;;;;;;5026787;28;20081;-70
2020/12/31 04:30:41;;;;;;;2.47;1.73;;;-0.50;99.90;;;;;;5030975;28;20093;-71
2020/12/31 04:33:06;;;;;;;3.42;3.13;;;-0.20;99.90;;;;;;5029496;28;20161;-71
2020/12/31 04:35:32;;;;;;;2.35;1.60;;;-0.30;99.90;;;;;;5026611;28;20136;-71
2020/12/31 04:37:58;;;;;;;2.97;1.90;;;-0.70;99.90;;;;;;5035284;28;20113;-71
2020/12/31 04:40:23;;;;;;;2.83;1.77;;;-0.90;99.90;;;;;;5028762;28;20077;-71
2020/12/31 04:42:51;;;;;;;1.77;1.30;;;-0.90;99.90;;;;;;5036595;28;20488;-71
2020/12/31 04:45:18;;;;;;;1.85;1.60;;;-1.10;99.90;;;;;;5028440;28;20127;-71
2020/12/31 04:47:53;;;;;;;2.40;1.77;;;-1.00;99.90;;;;;;5031112;28;20090;-71
2020/12/31 04:50:21;;;;;;;2.25;1.98;;;-1.20;99.90;;;;;;5030208;28;20069;-71
2020/12/31 04:52:48;;;;;;;2.47;2.00;;;-1.20;99.90;;;;;;5028490;28;20484;-71
2020/12/31 04:55:13;;;;;;;2.95;1.77;;;-0.80;99.90;;;;;;5028643;28;20647;-71
2020/12/31 04:57:39;;;;;;;2.70;1.70;;;-0.90;99.90;;;;;;5028710;28;20085;-71
2020/12/31 05:00:05;;;;;;;2.42;1.70;;;-1.10;99.90;;;;;;5029095;28;20120;-71
2020/12/31 05:02:30;;;;;;;2.13;1.50;;;-1.10;99.90;;;;;;5035708;28;20074;-71
2020/12/31 05:05:00;;;;;;;1.90;1.50;;;-1.10;99.90;;;;;;5036725;28;20101;-71
2020/12/31 05:07:26;;;;;;;2.30;1.50;;;-1.10;99.90;;;;;;5031182;28;20086;-71
2020/12/31 05:10:09;;;;;;;2.13;1.70;;;-1.10;99.90;;;;;;5030220;28;20513;-71
2020/12/31 05:12:35;;;;;;;2.63;1.88;;;-1.30;99.90;;;;;;5031188;28;20718;-71
2020/12/31 05:15:00;;;;;;;2.03;1.57;;;-1.40;99.90;;;;;;5029955;28;20168;-71
2020/12/31 05:17:29;;;;;;;3.80;1.67;;;-1.40;99.90;;;;;;5030728;28;20488;-71
2020/12/31 05:19:54;;;;;;;2.37;1.60;;;-1.40;99.90;;;;;;5029077;28;20082;-71
2020/12/31 05:22:20;;;;;;;2.10;1.60;;;-1.30;99.90;;;;;;5029639;28;20876;-71
2020/12/31 05:24:51;;;;;;;1.63;1.40;;;-1.10;99.90;;;;;;5028724;28;20174;-71
2020/12/31 05:27:28;;;;;;;2.47;1.67;;;-0.90;99.90;;;;;;5028279;28;20109;-71
2020/12/31 05:30:03;;;;;;;2.10;1.67;;;-1.20;99.90;;;;;;5031045;28;20081;-71
2020/12/31 05:32:31;;;;;;;3.95;2.00;;;-1.20;99.90;;;;;;5032403;28;20069;-71
2020/12/31 05:34:57;;;;;;;2.33;1.80;;;-1.30;99.90;;;;;;5032461;28;20089;-71
2020/12/31 05:37:24;;;;;;;2.40;1.70;;;-1.30;99.90;;;;;;5034340;28;20078;-71
2020/12/31 05:40:07;;;;;;;2.57;2.23;;;-1.30;99.90;;;;;;5030470;28;20074;-71
2020/12/31 05:42:34;;;;;;;1.70;1.40;;;-1.00;99.90;;;;;;5034911;28;20074;-71
2020/12/31 05:45:09;;;;;;;2.10;1.70;;;-0.90;99.90;;;;;;5028796;28;20090;-71
2020/12/31 05:47:43;;;;;;;1.47;1.30;;;-1.10;99.90;;;;;;5036300;28;20211;-71
2020/12/31 05:50:21;;;;;;;1.53;1.30;;;-1.30;99.90;;;;;;5029516;28;20074;-71
2020/12/31 05:52:48;;;;;;;2.47;1.55;;;-1.70;99.90;;;;;;5035535;28;20811;-71
2020/12/31 05:55:16;;;;;;;3.40;1.70;;;-1.70;99.90;;;;;;5031697;28;20175;-71
2020/12/31 05:57:45;;;;;;;3.17;1.90;;;-1.60;99.90;;;;;;5039154;28;20082;-72
2020/12/31 06:00:14;;;;;;;2.10;1.40;;;-1.30;99.90;;;;;;5029064;28;20546;-71
2020/12/31 06:02:55;;;;;;;2.33;1.67;;;-1.10;99.90;;;;;;5028257;28;20074;-71
2020/12/31 06:05:22;;;;;;;2.20;1.48;;;-1.00;99.90;;;;;;5028763;28;20093;-71
2020/12/31 06:07:55;;;;;;;3.30;1.90;;;-1.20;99.90;;;;;;5030198;28;20616;-71
2020/12/31 06:10:31;;;;;;;2.00;1.63;;;-1.40;99.90;;;;;;5032702;28;20475;-71
2020/12/31 06:13:05;;;;;;;2.03;1.60;;;-1.60;99.90;;;;;;5031930;28;20119;-71
2020/12/31 06:15:37;;;;;;;3.03;2.20;;;-1.50;99.90;;;;;;5029772;28;20092;-71
2020/12/31 06:18:04;;;;;;;3.73;1.70;;;-1.60;99.90;;;;;;5034129;28;20089;-71
2020/12/31 06:20:36;;;;;;;3.23;2.10;;;-1.60;99.90;;;;;;5031517;28;20085;-71
2020/12/31 06:23:02;;;;;;;3.03;2.17;;;-1.70;99.90;;;;;;5027511;28;20103;-71
2020/12/31 06:25:39;;;;;;;4.67;2.47;;;-1.70;99.90;;;;;;5030507;28;20168;-71
2020/12/31 06:28:25;;;;;;;3.33;2.47;;;-1.70;99.90;;;;;;5033296;28;20832;-71
2020/12/31 06:30:55;;;;;;;3.37;2.30;;;-1.50;99.90;;;;;;5028785;28;20078;-71
2020/12/31 06:33:46;;;;;;;2.57;2.20;;;-1.50;99.90;;;;;;5035484;28;20066;-71
2020/12/31 06:36:12;;;;;;;2.23;2.03;;;-1.60;99.90;;;;;;5035880;28;20546;-71
2020/12/31 06:38:47;;;;;;;3.53;1.93;;;-1.90;99.90;;;;;;5024469;28;20090;-71
2020/12/31 06:41:33;;;;;;;2.08;1.63;;;-1.90;99.90;;;;;;5027921;28;20170;-71
2020/12/31 06:44:05;;;;;;;2.20;2.00;;;-2.00;99.90;;;;;;5027057;28;20831;-71
2020/12/31 06:46:38;;;;;;;3.00;1.70;;;-2.50;99.90;;;;;;5033475;28;20094;-70
2020/12/31 06:49:03;;;;;;;2.40;1.73;;;-2.50;99.90;;;;;;5036100;28;20081;-71
2020/12/31 06:51:29;;;;;;;3.67;1.90;;;-2.50;99.90;;;;;;5031773;28;20097;-70
2020/12/31 06:53:54;;;;;;;1.83;1.53;;;-2.50;99.90;;;;;;5026645;28;20105;-71
2020/12/31 06:56:40;;;;;;;3.80;1.60;;;-2.30;99.90;;;;;;5027234;28;20077;-71
2020/12/31 06:59:23;;;;;;;;;;;-2.10;99.90;;;;;;5037304;28;20140;-71
2020/12/31 07:01:49;;;;;;;2.47;2.00;;;-2.00;99.90;;;;;;5034118;28;19957;-71
2020/12/31 07:04:28;;;;;;;1.77;1.33;;;-1.80;99.90;;;;;;5027270;28;20101;-71
2020/12/31 07:06:53;;;;;;;2.37;1.63;;;-1.70;99.90;;;;;;5034876;28;20098;-71
2020/12/31 07:09:34;;;;;;;2.60;1.50;;;-1.70;99.90;;;;;;5030021;28;20074;-71
2020/12/31 07:12:02;;;;;;;2.17;1.67;;;-1.80;99.90;;;;;;5034396;28;20069;-71
2020/12/31 07:14:29;;;;;;;7.57;1.50;;;-2.00;99.90;;;;;;5039525;28;20093;-72
2020/12/31 07:16:57;;;;;;;2.13;1.50;;;-1.90;99.90;;;;;;5031363;28;20147;-71
2020/12/31 07:19:34;;;;;;;3.10;1.50;;;-1.60;99.90;;;;;;5028155;28;20078;-71
2020/12/31 07:22:00;;;;;;;2.20;1.67;;;-1.70;99.90;;;;;;5028818;28;20077;-71
2020/12/31 07:24:27;;;;;;;1.77;1.33;;;-1.70;99.90;;;;;;5032714;28;20109;-71
2020/12/31 07:26:59;;;;;;;3.23;1.70;;;-1.80;99.90;;;;;;5026050;28;20089;-71
2020/12/31 07:29:25;;;;;;;1.90;1.50;;;-1.50;99.90;;;;;;5031455;28;20527;-72
2020/12/31 07:31:51;;;;;;;4.03;1.53;;;-1.60;99.90;;;;;;5044967;28;20089;-71
2020/12/31 07:34:24;;;;;;;3.57;1.50;;;-1.70;99.90;;;;;;5025261;28;20085;-71
2020/12/31 07:37:04;;;;;;;1.73;1.37;;;-1.60;99.90;;;;;;5033212;28;20082;-71
2020/12/31 07:39:31;;;;;;;2.37;2.00;;;-1.50;99.90;;;;;;5022948;28;20152;-71
2020/12/31 07:42:17;;;;;;;2.23;1.50;;;-1.60;99.90;;;;;;5032744;28;20086;-71
2020/12/31 07:44:50;;;;;;;1.97;1.63;;;-1.70;99.90;;;;;;5042091;28;20100;-71
2020/12/31 07:47:17;;;;;;;1.77;1.60;;;-1.70;99.90;;;;;;5043729;28;20094;-70
2020/12/31 07:49:47;;;;;;;1.43;1.23;;;-1.70;99.90;;;;;;5026548;28;20070;-71
2020/12/31 07:52:13;;;;;;;2.17;1.20;;;-1.70;99.90;;;;;;5030539;28;20077;-71
2020/12/31 07:54:39;;;;;;;1.57;1.40;;;-1.70;99.90;;;;;;5031296;28;20090;-71
2020/12/31 07:57:08;;;;;;;3.25;2.95;;;-1.90;99.90;;;;;;5041228;28;20139;-71
2020/12/31 07:59:45;;;;;;;3.00;1.90;;;-1.50;99.90;;;;;;5034685;28;20070;-71
2020/12/31 08:02:15;;;;;;;5.93;2.83;;;-1.10;99.90;;;;;;5037360;28;20386;-70
2020/12/31 08:04:41;;;;;;;3.30;2.20;;;-1.20;99.90;;;;;;5031134;28;20109;-70
2020/12/31 08:07:17;;;;;;;3.00;2.50;;;-1.20;99.90;;;;;;5041723;28;20174;-71
2020/12/31 08:09:44;;;;;;;2.00;1.80;;;-1.30;99.90;;;;;;5035520;28;20066;-70
2020/12/31 08:12:11;;;;;;;2.20;1.40;;;-1.30;99.90;;;;;;5038078;28;20073;-72
2020/12/31 08:14:43;;;;;;;2.30;1.80;;;-1.30;99.90;;;;;;5046874;28;20085;-70
2020/12/31 08:17:09;;;;;;;2.00;1.60;;;-1.40;99.90;;;;;;5036460;28;20104;-70
2020/12/31 08:19:37;;;;;;;2.35;1.70;;;-1.40;99.90;;;;;;5050715;28;20901;-70
2020/12/31 08:22:33;;;;;;;2.83;2.03;;;-1.40;99.90;;;;;;5050460;28;20089;-70
2020/12/31 08:25:14;;;;;;;4.43;2.47;;;-1.20;99.90;;;;;;5043072;28;20132;-71
2020/12/31 08:27:43;;;;;;;5.30;2.20;;;-0.90;99.90;;;;;;5049018;28;20108;-70
2020/12/31 08:30:12;;;;;;;2.40;2.17;;;-0.80;99.90;;;;;;5050496;28;20177;-70
2020/12/31 08:32:58;;;;;;;2.63;2.13;;;-0.60;99.90;;;;;;5050347;28;20062;-72
2020/12/31 08:35:43;;;;;;;3.55;2.47;;;-0.60;99.90;;;;;;5049476;28;20493;-71
2020/12/31 08:38:13;;;;;;;3.00;2.30;;;-0.50;99.90;;;;;;5048314;28;20085;-71
2020/12/31 08:40:54;;;;;;;3.28;2.20;;;-0.40;99.90;;;;;;5049220;28;20085;-72
2020/12/31 08:43:22;;;;;;;3.53;2.10;;;-0.20;99.90;;;;;;5049211;28;20069;-70
2020/12/31 08:45:51;;;;;;;5.38;2.10;;;-0.10;99.90;;;;;;5050285;28;20109;-70
2020/12/31 08:48:27;;;;;;;3.72;2.35;;;0.10;99.90;;;;;;5051259;28;20069;-71
2020/12/31 08:51:04;;;;;;;3.40;2.15;;;-0.10;99.90;;;;;;5051134;28;20866;-76
2020/12/31 08:53:30;;;;;;;2.20;1.92;;;0.10;99.90;;;;;;5058432;28;20084;-72
2020/12/31 08:55:56;;;;;;;2.20;1.92;;;0.30;99.90;;;;;;5049806;28;20096;-71
2020/12/31 08:58:31;;;;;;;2.45;1.80;;;0.40;99.90;;;;;;5049741;28;20095;-72
2020/12/31 09:00:57;;;;;;;2.53;1.75;;;0.60;99.90;;;;;;5048062;28;20077;-75
2020/12/31 09:03:24;;;;;;;2.65;2.00;;;0.70;99.90;;;;;;5046181;28;20504;-71
2020/12/31 09:06:00;;;;;;;3.90;2.67;;;0.80;99.90;;;;;;5042963;28;20569;-72
2020/12/31 09:08:27;;;;;;;4.65;2.70;;;0.90;99.90;;;;;;5049291;28;20065;-71
2020/12/31 09:11:06;;;;;;;4.13;2.80;;;1.00;99.90;;;;;;5049444;28;20080;-72
2020/12/31 09:13:36;;;;;;;3.28;2.63;;;1.10;99.90;;;;;;5049463;28;20069;-70
2020/12/31 09:16:14;;;;;;;5.18;3.70;;;1.10;99.90;;;;;;5048268;28;20191;-71
2020/12/31 09:18:41;;;;;;;4.80;3.03;;;1.10;99.90;;;;;;5048099;28;20410;-71
2020/12/31 09:21:07;;;;;;;5.90;4.03;;;1.00;99.90;;;;;;5049414;28;20078;-73
2020/12/31 09:23:33;;;;;;;4.80;3.22;;;1.10;99.90;;;;;;5050650;28;20605;-72
2020/12/31 09:25:58;;;;;;;4.78;3.60;;;1.30;99.90;;;;;;5047010;28;20212;-73
2020/12/31 09:28:27;;;;;;;4.95;3.35;;;1.40;99.90;;;;;;5048975;28;20135;-72
2020/12/31 09:30:54;;;;;;;5.47;4.47;;;1.50;99.90;;;;;;5049510;28;20073;-73
2020/12/31 09:33:21;;;;;;;6.68;4.38;;;1.50;99.90;;;;;;5048338;28;20160;-74
2020/12/31 09:35:47;;;;;;;8.38;5.72;;;1.50;99.90;;;;;;5049216;28;20085;-75
2020/12/31 09:38:14;;;;;;;8.07;5.80;;;1.40;99.90;;;;;;5049707;28;20080;-73
2020/12/31 09:40:41;;;;;;;6.78;5.88;;;1.60;99.90;;;;;;5037436;28;20101;-77
2020/12/31 09:43:07;;;;;;;6.60;4.78;;;1.60;99.90;;;;;;5037651;28;20833;-77
2020/12/31 09:45:32;;;;;;;7.55;4.78;;;1.70;99.90;;;;;;5048414;28;20184;-76
2020/12/31 09:47:58;;;;;;;7.18;4.22;;;1.80;99.90;;;;;;5041398;28;20084;-76
2020/12/31 09:50:24;;;;;;;6.88;3.65;;;1.80;99.90;;;;;;5043468;28;20074;-78
2020/12/31 09:52:49;;;;;;;3.42;2.80;;;1.90;99.90;;;;;;5032639;28;20074;-77
2020/12/31 09:55:15;;;;;;;3.97;3.03;;;2.00;99.90;;;;;;5052469;28;20873;-75
2020/12/31 09:57:41;;;;;;;4.43;2.95;;;2.00;99.90;;;;;;5036622;28;20085;-75
2020/12/31 10:00:07;;;;;;;2.78;2.38;;;2.10;99.90;;;;;;5040703;28;20077;-75
2020/12/31 10:02:33;;;;;;;2.50;1.85;;;2.20;99.90;;;;;;5037450;28;20070;-77
2020/12/31 10:04:59;;;;;;;2.60;2.05;;;2.20;99.90;;;;;;5049864;28;20097;-75
2020/12/31 10:07:24;;;;;;;2.75;1.98;;;2.20;99.90;;;;;;5032785;28;20096;-75
2020/12/31 10:09:50;;;;;;;3.13;1.80;;;2.20;99.90;;;;;;5039358;28;20508;-76
2020/12/31 10:12:16;;;;;;;3.08;2.10;;;2.30;99.90;;;;;;5038700;28;20573;-75
2020/12/31 10:14:42;;;;;;;2.28;1.70;;;2.30;99.70;;;;;;5041269;28;20154;-76
2020/12/31 10:17:08;;;;;;;2.22;1.60;;;2.30;99.90;;;;;;5040688;28;20080;-76
2020/12/31 10:19:34;;;;;;;3.40;2.17;;;2.40;99.90;;;;;;5038584;28;20092;-76
2020/12/31 10:22:00;;;;;;;2.45;1.90;;;2.50;99.90;;;;;;5035123;28;20626;-73
2020/12/31 10:24:26;;;;;;;2.53;1.70;;;2.50;99.90;;;;;;5029824;28;20165;-76
2020/12/31 10:26:52;;;;;;;2.65;1.75;;;2.50;99.90;;;;;;5031204;28;20180;-78
2020/12/31 10:29:18;;;;;;;2.10;1.90;;;2.50;99.90;;;;;;5045701;28;20158;-77
2020/12/31 10:31:58;;;;;;;1.83;1.50;;;2.50;99.90;;;;;;5041300;28;20160;-75
2020/12/31 10:34:25;;;;;;;2.30;1.80;;;2.50;99.50;;;;;;5042481;28;20193;-73
2020/12/31 10:36:55;;;;;;;3.30;1.90;;;2.50;99.80;;;;;;5037947;28;20101;-72
2020/12/31 10:39:21;;;;;;;2.20;1.88;;;2.50;99.90;;;;;;5041367;28;20444;-72
2020/12/31 10:41:48;;;;;;;3.25;2.20;;;2.60;99.90;;;;;;5039419;28;20104;-72
2020/12/31 10:44:14;;;;;;;5.70;2.30;;;2.50;99.30;;;;;;5052370;28;20121;-74
2020/12/31 10:46:41;;;;;;;2.85;2.40;;;2.50;99.90;;;;;;5043552;28;20096;-74
2020/12/31 10:49:07;;;;;;;3.22;2.20;;;2.60;99.90;;;;;;5047028;28;20184;-72
2020/12/31 10:51:34;;;;;;;3.47;2.65;;;2.60;99.90;;;;;;5042488;28;20139;-74
2020/12/31 10:53:59;;;;;;;3.92;2.50;;;2.60;99.90;;;;;;5044042;28;20096;-76
2020/12/31 10:56:25;;;;;;;4.25;2.95;;;2.60;99.90;;;;;;5044799;28;20081;-76
2020/12/31 10:58:50;;;;;;;5.55;3.63;;;2.60;99.90;;;;;;5043505;28;20069;-77
2020/12/31 11:01:16;;;;;;;4.25;3.22;;;2.60;99.90;;;;;;5036620;28;20151;-72
2020/12/31 11:03:43;;;;;;;4.05;2.80;;;2.60;99.90;;;;;;5036337;28;20135;-73
2020/12/31 11:06:10;;;;;;;3.08;2.30;;;2.60;99.90;;;;;;5041322;28;20125;-72
2020/12/31 11:08:36;;;;;;;2.65;2.10;;;2.70;99.90;;;;;;5035009;28;20101;-72
2020/12/31 11:11:02;;;;;;;3.20;2.30;;;2.70;99.90;;;;;;5030674;28;20081;-73
2020/12/31 11:13:27;;;;;;;2.95;2.05;;;2.70;99.60;;;;;;5031043;28;20593;-72
2020/12/31 11:15:53;;;;;;;2.42;1.98;;;2.80;99.90;;;;;;5031536;28;20109;-73
2020/12/31 11:18:18;;;;;;;2.90;2.13;;;2.80;99.30;;;;;;5039655;28;20089;-76
2020/12/31 11:20:44;;;;;;;3.08;2.00;;;2.80;98.40;;;;;;5041504;28;20155;-77
2020/12/31 11:23:10;;;;;;;4.97;2.65;;;2.80;99.20;;;;;;5045562;28;20548;-78
2020/12/31 11:25:35;;;;;;;2.78;2.10;;;2.80;99.60;;;;;;5029815;28;20200;-77
2020/12/31 11:28:01;;;;;;;2.40;2.13;;;2.90;99.90;;;;;;5037558;28;20085;-77
2020/12/31 11:30:26;;;;;;;3.60;2.30;;;2.90;99.90;;;;;;5036583;28;20065;-77
2020/12/31 11:32:52;;;;;;;3.75;2.58;;;3.00;99.90;;;;;;5038795;28;20082;-77
2020/12/31 11:35:18;;;;;;;3.10;2.63;;;3.00;99.80;;;;;;5037059;28;20089;-72
2020/12/31 11:37:43;;;;;;;6.72;1.92;;;3.10;99.90;;;;;;5033892;28;20074;-73
2020/12/31 11:40:09;;;;;;;3.58;2.00;;;3.10;99.10;;;;;;5029379;28;20172;-72
2020/12/31 11:42:35;;;;;;;3.30;2.13;;;3.10;98.10;;;;;;5025065;28;20428;-71
2020/12/31 11:45:02;;;;;;;3.30;2.15;;;3.10;98.10;;;;;;5034900;28;20169;-71
2020/12/31 11:47:28;;;;;;;2.90;2.08;;;3.10;97.50;;;;;;5026696;28;20509;-71
2020/12/31 11:49:53;;;;;;;2.90;2.10;;;3.10;97.50;;;;;;5027416;28;20074;-71
2020/12/31 11:52:19;;;;;;;2.60;2.22;;;3.10;98.70;;;;;;5032871;28;20073;-71
2020/12/31 11:54:45;;;;;;;2.22;1.83;;;3.20;98.70;;;;;;5033118;28;20478;-76
2020/12/31 11:57:11;;;;;;;2.00;1.75;;;3.20;99.00;;;;;;5034168;28;20168;-71
2020/12/31 11:59:36;;;;;;;4.72;1.95;;;3.20;99.30;;;;;;5041568;28;20637;-72
2020/12/31 12:02:02;;;;;;;2.28;1.80;;;3.30;99.40;;;;;;5046104;28;20208;-76
2020/12/31 12:04:27;;;;;;;3.00;2.08;;;3.30;99.20;;;;;;5041152;28;20110;-78
2020/12/31 12:06:54;;;;;;;4.10;1.95;;;3.30;99.10;;;;;;5046198;28;20227;-77
2020/12/31 12:09:23;;;;;;;3.40;2.65;;;3.40;98.60;;;;;;5031009;28;20074;-72
2020/12/31 12:11:49;;;;;;;3.38;2.63;;;3.40;99.00;;;;;;5038817;28;20097;-72
2020/12/31 12:14:15;;;;;;;3.63;2.10;;;3.40;99.30;;;;;;5036845;28;20093;-72
2020/12/31 12:16:42;;;;;;;3.88;2.20;;;3.50;99.30;;;;;;5038944;28;20089;-72
2020/12/31 12:19:11;;;;;;;3.22;2.10;;;3.50;99.30;;;;;;5031574;28;20086;-72
2020/12/31 12:21:37;;;;;;;3.17;2.40;;;3.50;99.30;;;;;;5036170;28;20085;-72
2020/12/31 12:24:04;;;;;;;3.75;2.90;;;3.50;99.20;;;;;;5029020;28;20159;-71
2020/12/31 12:26:37;;;;;;;3.28;2.15;;;3.50;98.80;;;;;;5031367;28;20120;-72
2020/12/31 12:29:04;;;;;;;3.80;2.85;;;3.70;99.80;;;;;;5045786;28;20488;-73
2020/12/31 12:31:31;;;;;;;2.53;2.08;;;3.80;99.90;;;;;;5035991;28;20092;-73
2020/12/31 12:33:57;;;;;;;4.45;2.20;;;3.80;99.30;;;;;;5033379;28;20097;-73
2020/12/31 12:36:22;;;;;;;2.88;2.38;;;3.90;99.00;;;;;;5042110;28;20073;-73
2020/12/31 12:38:48;;;;;;;3.38;2.45;;;3.90;99.50;;;;;;5034554;28;20085;-73
2020/12/31 12:41:13;;;;;;;4.90;2.50;;;4.00;98.50;;;;;;5037987;28;20096;-73
2020/12/31 12:43:39;;;;;;;2.67;2.33;;;4.00;98.90;;;;;;5037199;28;20450;-72
2020/12/31 12:46:04;;;;;;;3.83;2.80;;;4.10;99.00;;;;;;5033520;28;20094;-73
2020/12/31 12:48:30;;;;;;;5.05;3.03;;;4.10;98.00;;;;;;5041857;28;20148;-74
2020/12/31 12:50:56;;;;;;;2.53;2.28;;;4.00;98.90;;;;;;5043820;28;20082;-73
2020/12/31 12:53:21;;;;;;;2.40;1.95;;;4.10;98.30;;;;;;5034279;28;20199;-73
2020/12/31 12:55:47;;;;;;;4.93;2.33;;;4.10;98.10;;;;;;5039173;28;20101;-73